Time;durP1;ratioP1;P1;durP2;ratioP2;P2;SDS_P1;SDS_P2;PMS_P1;PMS_P2;Temp;Humidity;BMP_temperature;BMP_pressure;BME280_temperature;BME280_humidity;BME280_pressure;Samples;Min_cycle;Max_cycle;Signal;HPM_P1;HPM_P2
2022/05/31 00:00:07;;;;;;;1.20;1.10;;;10.80;98.70;;;;;;5051657;28;20420;-77
2022/05/31 00:02:33;;;;;;;2.80;1.10;;;10.70;98.40;;;;;;5051155;28;20524;-77
2022/05/31 00:04:59;;;;;;;1.30;1.13;;;10.70;99.30;;;;;;5069618;28;20569;-77
2022/05/31 00:07:24;;;;;;;3.10;1.60;;;10.70;98.90;;;;;;5034956;28;20213;-78
2022/05/31 00:09:50;;;;;;;1.07;0.97;;;10.80;99.90;;;;;;5069540;28;20184;-78
2022/05/31 00:12:16;;;;;;;1.37;0.80;;;10.70;99.40;;;;;;5069544;28;20182;-77
2022/05/31 00:14:42;;;;;;;6.90;1.30;;;10.70;97.60;;;;;;5069834;28;20439;-78
2022/05/31 00:17:08;;;;;;;1.03;0.93;;;10.80;97.90;;;;;;5051524;28;20900;-77
2022/05/31 00:19:34;;;;;;;1.30;1.20;;;10.80;98.00;;;;;;5069807;28;20433;-78
2022/05/31 00:22:08;;;;;;;1.90;1.40;;;10.80;98.20;;;;;;5069590;28;20191;-78
2022/05/31 00:24:34;;;;;;;2.60;1.43;;;10.70;99.90;;;;;;5069508;28;20205;-78
2022/05/31 00:27:00;;;;;;;4.00;1.23;;;10.60;99.90;;;;;;5034341;28;20470;-78
2022/05/31 00:29:26;;;;;;;2.67;1.10;;;10.60;99.90;;;;;;5051147;28;20476;-79
2022/05/31 00:31:53;;;;;;;1.50;1.20;;;10.50;99.70;;;;;;5034343;28;20198;-79
2022/05/31 00:34:19;;;;;;;2.30;1.47;;;10.40;99.90;;;;;;5069020;28;20967;-79
2022/05/31 00:36:47;;;;;;;3.23;1.30;;;10.40;99.90;;;;;;5050890;28;20474;-78
2022/05/31 00:39:13;;;;;;;3.30;1.43;;;10.40;99.90;;;;;;5068866;28;20268;-78
2022/05/31 00:41:39;;;;;;;1.87;1.13;;;10.40;99.90;;;;;;5069323;28;20418;-79
2022/05/31 00:44:08;;;;;;;1.43;1.33;;;10.30;99.90;;;;;;5068499;28;20514;-78
2022/05/31 00:46:45;;;;;;;1.93;1.40;;;10.30;99.90;;;;;;5050596;28;20487;-77
2022/05/31 00:49:16;;;;;;;2.73;1.50;;;10.20;99.90;;;;;;5050406;28;20424;-78
2022/05/31 00:51:46;;;;;;;2.70;0.80;;;10.20;99.90;;;;;;5068592;28;20448;-78
2022/05/31 00:54:15;;;;;;;5.23;1.10;;;10.10;99.90;;;;;;5033904;28;20460;-77
2022/05/31 00:56:43;;;;;;;7.60;1.70;;;10.20;99.90;;;;;;5068430;28;20424;-77
2022/05/31 00:59:12;;;;;;;4.00;1.53;;;10.10;99.90;;;;;;5068698;28;20423;-77
2022/05/31 01:01:40;;;;;;;2.13;1.47;;;10.00;99.90;;;;;;5068515;28;20537;-77
2022/05/31 01:04:06;;;;;;;5.73;1.50;;;9.80;99.90;;;;;;5050163;28;20476;-77
2022/05/31 01:06:33;;;;;;;3.30;1.40;;;9.80;99.90;;;;;;5068079;28;20465;-77
2022/05/31 01:09:00;;;;;;;2.17;1.57;;;9.70;99.90;;;;;;5050058;28;20423;-77
2022/05/31 01:11:29;;;;;;;1.97;1.30;;;9.60;99.90;;;;;;5068283;28;20499;-77
2022/05/31 01:13:55;;;;;;;2.93;1.87;;;9.50;99.90;;;;;;5050327;28;20438;-77
2022/05/31 01:16:21;;;;;;;2.03;1.63;;;9.40;99.90;;;;;;5071032;28;20424;-77
2022/05/31 01:18:48;;;;;;;4.07;1.37;;;9.40;99.90;;;;;;5072169;28;20818;-77
2022/05/31 01:21:13;;;;;;;1.83;1.57;;;9.40;99.90;;;;;;5072009;28;20411;-77
2022/05/31 01:23:46;;;;;;;3.07;1.20;;;9.50;99.90;;;;;;5071985;28;20446;-77
2022/05/31 01:26:52;;;;;;;3.33;1.53;;;9.60;99.90;;;;;;5053712;28;20205;-78
2022/05/31 01:29:25;;;;;;;4.80;2.20;;;9.50;99.90;;;;;;5058073;28;20429;-77
2022/05/31 01:31:58;;;;;;;2.40;1.70;;;9.60;99.90;;;;;;5054005;28;20429;-77
2022/05/31 01:34:36;;;;;;;2.87;1.77;;;9.50;99.90;;;;;;5053858;28;20439;-78
2022/05/31 01:37:02;;;;;;;2.17;1.63;;;9.70;99.90;;;;;;5071773;28;20770;-78
2022/05/31 01:39:49;;;;;;;2.00;1.50;;;9.60;99.90;;;;;;5071681;28;20424;-78
2022/05/31 01:42:29;;;;;;;2.40;1.73;;;9.70;99.90;;;;;;5071633;28;20487;-78
2022/05/31 01:45:02;;;;;;;2.70;1.73;;;9.60;99.90;;;;;;5071674;28;20423;-78
2022/05/31 01:47:29;;;;;;;3.23;1.67;;;9.60;99.90;;;;;;5071680;28;20470;-78
2022/05/31 01:49:55;;;;;;;1.87;1.57;;;9.50;99.90;;;;;;5037025;28;20498;-77
2022/05/31 01:52:22;;;;;;;3.40;2.10;;;9.50;99.90;;;;;;5071308;28;21001;-79
2022/05/31 01:54:49;;;;;;;2.20;2.00;;;9.50;99.90;;;;;;5053608;28;20448;-80
2022/05/31 01:57:17;;;;;;;2.53;1.63;;;9.60;99.90;;;;;;5071270;28;20976;-79
2022/05/31 01:59:59;;;;;;;2.37;1.50;;;9.40;99.90;;;;;;5053020;28;20495;-76
2022/05/31 02:02:25;;;;;;;2.27;1.97;;;9.50;99.90;;;;;;5071170;28;20484;-76
2022/05/31 02:04:51;;;;;;;4.00;2.00;;;9.30;99.90;;;;;;5036753;28;20442;-77
2022/05/31 02:07:20;;;;;;;3.30;1.80;;;9.30;99.90;;;;;;5053434;28;20464;-77
2022/05/31 02:09:51;;;;;;;5.60;2.47;;;9.40;99.90;;;;;;5053150;28;20187;-77
2022/05/31 02:12:18;;;;;;;3.97;2.00;;;9.30;99.90;;;;;;5053090;28;20521;-77
2022/05/31 02:14:44;;;;;;;2.53;2.13;;;9.20;99.90;;;;;;5071195;28;20804;-77
2022/05/31 02:17:10;;;;;;;2.60;2.00;;;9.20;99.90;;;;;;5071042;28;20825;-77
2022/05/31 02:19:37;;;;;;;2.87;2.53;;;9.20;99.90;;;;;;5070825;28;20418;-77
2022/05/31 02:22:06;;;;;;;4.63;2.00;;;9.30;99.90;;;;;;5070632;28;20422;-76
2022/05/31 02:24:32;;;;;;;2.30;2.03;;;9.40;99.90;;;;;;5070714;28;20956;-77
2022/05/31 02:26:58;;;;;;;1.90;1.70;;;9.40;99.90;;;;;;5069430;28;20825;-76
2022/05/31 02:29:26;;;;;;;3.03;1.90;;;9.20;99.90;;;;;;5071252;28;20527;-78
2022/05/31 02:31:53;;;;;;;4.60;1.90;;;8.70;99.90;;;;;;5071264;28;20814;-77
2022/05/31 02:34:22;;;;;;;2.67;2.00;;;8.60;99.90;;;;;;5053596;28;20437;-79
2022/05/31 02:36:49;;;;;;;2.73;1.97;;;8.50;99.90;;;;;;5071733;28;20420;-77
2022/05/31 02:39:15;;;;;;;2.33;2.13;;;8.60;99.90;;;;;;5070762;28;20421;-81
2022/05/31 02:41:41;;;;;;;4.00;2.10;;;8.70;99.90;;;;;;5071291;28;20424;-81
2022/05/31 02:44:08;;;;;;;5.00;1.77;;;8.70;99.90;;;;;;5052592;28;20494;-79
2022/05/31 02:46:35;;;;;;;3.10;1.90;;;8.70;99.90;;;;;;5071197;28;20460;-79
2022/05/31 02:49:04;;;;;;;3.23;1.87;;;8.70;99.90;;;;;;5053112;28;20417;-78
2022/05/31 02:51:36;;;;;;;2.33;2.10;;;8.60;99.90;;;;;;5071029;28;20430;-79
2022/05/31 02:54:03;;;;;;;6.63;2.40;;;8.50;99.90;;;;;;5052801;28;20879;-77
2022/05/31 02:56:28;;;;;;;3.77;2.13;;;8.60;99.90;;;;;;5070839;28;20496;-76
2022/05/31 02:58:54;;;;;;;2.67;1.97;;;8.60;99.90;;;;;;5051944;28;20914;-75
2022/05/31 03:01:30;;;;;;;4.13;2.00;;;8.60;99.90;;;;;;5051886;28;20556;-75
2022/05/31 03:03:55;;;;;;;3.53;2.50;;;8.50;99.90;;;;;;5070106;28;20264;-76
2022/05/31 03:06:22;;;;;;;2.93;1.97;;;8.50;99.90;;;;;;5051605;28;20465;-75
2022/05/31 03:08:48;;;;;;;4.43;2.77;;;8.70;99.90;;;;;;5069752;28;20938;-75
2022/05/31 03:11:24;;;;;;;3.00;2.60;;;8.60;99.90;;;;;;5069790;28;20426;-72
2022/05/31 03:13:53;;;;;;;4.00;2.30;;;8.70;99.90;;;;;;5069674;28;20506;-73
2022/05/31 03:16:21;;;;;;;7.27;2.70;;;8.80;99.90;;;;;;5069752;28;20413;-74
2022/05/31 03:18:53;;;;;;;4.53;2.50;;;8.80;99.90;;;;;;5069961;28;20490;-72
2022/05/31 03:21:24;;;;;;;4.93;2.03;;;8.90;99.90;;;;;;5051422;28;20476;-72
2022/05/31 03:23:55;;;;;;;2.47;2.27;;;8.80;99.90;;;;;;5051324;28;20449;-74
2022/05/31 03:26:22;;;;;;;2.50;2.00;;;8.90;99.90;;;;;;5069724;28;20492;-76
2022/05/31 03:28:48;;;;;;;5.07;2.40;;;8.80;99.90;;;;;;5051480;28;20475;-76
2022/05/31 03:31:14;;;;;;;5.10;2.67;;;8.90;99.90;;;;;;5069394;28;20426;-75
2022/05/31 03:33:39;;;;;;;5.60;2.63;;;8.90;99.90;;;;;;5069402;28;20301;-76
2022/05/31 03:36:06;;;;;;;4.60;2.87;;;8.80;99.90;;;;;;5069412;28;20417;-75
2022/05/31 03:38:32;;;;;;;4.17;2.47;;;8.70;99.90;;;;;;5069073;28;20188;-75
2022/05/31 03:40:58;;;;;;;3.00;2.20;;;8.70;99.90;;;;;;5069370;28;20496;-77
2022/05/31 03:43:27;;;;;;;2.40;2.20;;;8.70;99.90;;;;;;5034770;28;20752;-77
2022/05/31 03:45:52;;;;;;;3.07;2.50;;;8.80;99.90;;;;;;5069494;28;20414;-77
2022/05/31 03:48:18;;;;;;;3.07;2.30;;;8.70;99.90;;;;;;5051397;28;20493;-78
2022/05/31 03:50:44;;;;;;;3.30;2.70;;;8.70;99.90;;;;;;5051318;28;20909;-74
2022/05/31 03:53:13;;;;;;;3.73;2.63;;;8.90;99.90;;;;;;5069120;28;20444;-74
2022/05/31 03:55:46;;;;;;;7.23;2.50;;;8.70;99.90;;;;;;5069042;28;21061;-75
2022/05/31 03:58:12;;;;;;;3.27;2.70;;;8.60;99.90;;;;;;5051170;28;20915;-76
2022/05/31 04:00:37;;;;;;;3.57;2.90;;;8.70;99.90;;;;;;5034519;28;20416;-75
2022/05/31 04:03:03;;;;;;;3.20;2.83;;;8.70;99.90;;;;;;5035108;28;20205;-75
2022/05/31 04:05:29;;;;;;;5.33;2.87;;;8.70;99.90;;;;;;5072356;28;20181;-72
2022/05/31 04:08:01;;;;;;;5.73;3.17;;;8.70;99.90;;;;;;5038302;28;20476;-77
2022/05/31 04:10:29;;;;;;;4.17;2.63;;;8.70;99.90;;;;;;5055503;28;20425;-77
2022/05/31 04:12:55;;;;;;;3.37;2.80;;;8.80;99.90;;;;;;5073548;28;20445;-78
2022/05/31 04:15:22;;;;;;;4.03;2.73;;;8.60;99.90;;;;;;5055188;28;20425;-79
2022/05/31 04:17:47;;;;;;;3.10;2.80;;;8.50;99.90;;;;;;5054874;28;20571;-77
2022/05/31 04:20:13;;;;;;;5.43;3.13;;;8.60;99.90;;;;;;5054718;28;20509;-78
2022/05/31 04:22:39;;;;;;;4.80;3.03;;;8.50;99.90;;;;;;5070780;28;20203;-77
2022/05/31 04:25:05;;;;;;;4.70;4.00;;;8.70;99.90;;;;;;5034032;28;20784;-77
2022/05/31 04:27:30;;;;;;;4.27;2.80;;;8.90;99.90;;;;;;5050198;28;20244;-77
2022/05/31 04:29:56;;;;;;;3.43;2.90;;;8.90;99.90;;;;;;5050258;28;20472;-77
2022/05/31 04:32:23;;;;;;;4.20;2.97;;;9.10;99.90;;;;;;5049794;28;20186;-77
2022/05/31 04:34:48;;;;;;;5.53;2.53;;;9.20;99.90;;;;;;5067929;28;20172;-77
2022/05/31 04:37:15;;;;;;;4.73;2.90;;;9.30;99.90;;;;;;5067561;28;20433;-77
2022/05/31 04:39:40;;;;;;;6.87;3.07;;;9.30;99.90;;;;;;5067881;28;20551;-76
2022/05/31 04:42:08;;;;;;;3.27;2.67;;;9.40;99.90;;;;;;5033144;28;20439;-77
2022/05/31 04:44:34;;;;;;;12.37;3.20;;;9.60;99.90;;;;;;5050261;28;20309;-77
2022/05/31 04:47:00;;;;;;;3.40;3.10;;;9.80;99.90;;;;;;5068061;28;20486;-77
2022/05/31 04:49:25;;;;;;;3.50;2.53;;;9.70;99.90;;;;;;5068111;28;20176;-77
2022/05/31 04:51:51;;;;;;;3.93;3.07;;;9.80;99.90;;;;;;5038004;28;20184;-78
2022/05/31 04:54:17;;;;;;;7.63;2.90;;;9.90;99.90;;;;;;5072567;28;20208;-77
2022/05/31 04:56:43;;;;;;;4.03;3.00;;;9.90;99.90;;;;;;5054467;28;20180;-77
2022/05/31 04:59:09;;;;;;;4.20;3.80;;;9.90;99.90;;;;;;5072872;28;20421;-77
2022/05/31 05:01:36;;;;;;;5.03;3.23;;;10.00;99.90;;;;;;5054522;28;20456;-77
2022/05/31 05:04:02;;;;;;;3.70;3.07;;;10.20;99.90;;;;;;5055070;28;20438;-78
2022/05/31 05:06:28;;;;;;;4.43;2.90;;;10.40;99.90;;;;;;5054324;28;20944;-77
2022/05/31 05:08:54;;;;;;;5.73;3.50;;;10.50;99.90;;;;;;5054172;28;20422;-77
2022/05/31 05:11:22;;;;;;;5.20;2.70;;;10.60;99.90;;;;;;5071927;28;20175;-77
2022/05/31 05:13:49;;;;;;;11.70;3.50;;;10.70;99.90;;;;;;5072310;28;20197;-78
2022/05/31 05:16:16;;;;;;;12.10;3.40;;;10.90;99.90;;;;;;5072049;28;20500;-77
2022/05/31 05:18:42;;;;;;;4.23;3.13;;;11.00;99.90;;;;;;5072086;28;20423;-77
2022/05/31 05:21:12;;;;;;;6.50;3.40;;;10.90;99.90;;;;;;5072092;28;20423;-77
2022/05/31 05:23:38;;;;;;;4.80;3.17;;;10.90;99.90;;;;;;5071968;28;20508;-77
2022/05/31 05:26:04;;;;;;;3.10;2.80;;;10.90;99.90;;;;;;5071844;28;20924;-77
2022/05/31 05:31:27;;;;;;;3.83;3.23;;;10.90;99.90;;;;;;5072006;28;20931;-79
2022/05/31 05:33:54;;;;;;;6.90;3.50;;;11.00;99.90;;;;;;5071345;28;20443;-77
2022/05/31 05:36:21;;;;;;;8.17;2.90;;;11.10;99.90;;;;;;5071130;28;20750;-77
2022/05/31 05:38:47;;;;;;;7.87;3.23;;;11.20;99.90;;;;;;5071305;28;20429;-78
2022/05/31 05:41:14;;;;;;;8.27;3.37;;;11.50;99.90;;;;;;5036467;28;20426;-78
2022/05/31 05:43:42;;;;;;;2.97;2.70;;;11.80;99.90;;;;;;5052757;28;20526;-77
2022/05/31 05:46:17;;;;;;;4.20;2.93;;;11.90;99.90;;;;;;5053035;28;20916;-77
2022/05/31 05:48:43;;;;;;;6.63;3.47;;;12.00;99.90;;;;;;5070820;28;20412;-79
2022/05/31 05:51:29;;;;;;;5.20;2.60;;;12.00;99.90;;;;;;5070603;28;20940;-78
2022/05/31 05:53:56;;;;;;;4.70;3.20;;;12.10;99.90;;;;;;5070741;28;20458;-78
2022/05/31 05:56:22;;;;;;;3.37;2.67;;;12.10;99.90;;;;;;5052571;28;20951;-77
2022/05/31 05:58:48;;;;;;;5.93;3.17;;;12.20;99.90;;;;;;5070502;28;20419;-77
2022/05/31 06:01:30;;;;;;;3.60;2.53;;;12.20;99.90;;;;;;5070539;28;20415;-77
2022/05/31 06:04:08;;;;;;;4.20;2.67;;;12.30;99.90;;;;;;5070428;28;20441;-77
2022/05/31 06:06:35;;;;;;;5.30;3.13;;;12.50;99.90;;;;;;5052204;28;20459;-77
2022/05/31 06:09:08;;;;;;;8.23;3.00;;;12.60;99.90;;;;;;5035742;28;20425;-79
2022/05/31 06:11:42;;;;;;;7.93;4.40;;;12.50;99.90;;;;;;5070511;28;20428;-79
2022/05/31 06:14:24;;;;;;;4.07;3.60;;;12.60;99.90;;;;;;5070538;28;20914;-78
2022/05/31 06:16:55;;;;;;;6.80;3.13;;;12.60;99.90;;;;;;5070409;28;20398;-79
2022/05/31 06:19:28;;;;;;;3.53;3.23;;;12.60;99.90;;;;;;5052276;28;20451;-79
2022/05/31 06:21:54;;;;;;;3.93;3.50;;;12.60;99.90;;;;;;5052171;28;20473;-78
2022/05/31 06:24:23;;;;;;;4.57;3.00;;;12.70;99.90;;;;;;5070358;28;20439;-78
2022/05/31 06:26:49;;;;;;;3.70;3.13;;;12.70;99.90;;;;;;5051706;28;20479;-80
2022/05/31 06:29:15;;;;;;;4.67;2.90;;;12.70;99.90;;;;;;5070199;28;20424;-80
2022/05/31 06:31:40;;;;;;;5.47;3.30;;;12.90;99.90;;;;;;5052774;28;20721;-78
2022/05/31 06:34:06;;;;;;;5.57;2.90;;;13.00;99.90;;;;;;5035062;28;20202;-78
2022/05/31 06:36:32;;;;;;;4.37;3.00;;;12.90;99.90;;;;;;5070493;28;20194;-79
2022/05/31 06:38:57;;;;;;;3.73;2.57;;;13.00;99.90;;;;;;5069816;28;20187;-81
2022/05/31 06:41:23;;;;;;;4.07;3.10;;;13.40;99.90;;;;;;5069908;28;20187;-80
2022/05/31 06:43:49;;;;;;;10.63;3.70;;;13.50;99.90;;;;;;5051268;28;20219;-78
2022/05/31 06:46:15;;;;;;;5.70;3.40;;;13.50;99.90;;;;;;5051444;28;20616;-78
2022/05/31 06:48:41;;;;;;;3.60;2.90;;;13.40;99.90;;;;;;5051247;28;21007;-78
2022/05/31 06:51:09;;;;;;;3.83;2.80;;;13.50;99.90;;;;;;5051302;28;20193;-78
2022/05/31 06:59:04;;;;;;;4.33;3.10;;;14.10;99.90;;;;;;5068910;28;20435;-79
2022/05/31 07:01:35;;;;;;;3.27;2.73;;;14.30;99.90;;;;;;5069025;28;20420;-79
2022/05/31 07:04:01;;;;;;;6.13;3.00;;;14.50;99.90;;;;;;5035098;28;20198;-78
2022/05/31 07:06:28;;;;;;;3.57;2.50;;;14.70;99.90;;;;;;5068841;28;20499;-78
2022/05/31 07:08:54;;;;;;;4.50;2.90;;;14.80;99.90;;;;;;5050646;28;20460;-80
2022/05/31 07:11:20;;;;;;;4.33;2.77;;;14.90;99.90;;;;;;5069076;28;20463;-79
2022/05/31 07:13:47;;;;;;;6.37;2.80;;;14.90;99.90;;;;;;5068489;28;20437;-79
2022/05/31 07:16:13;;;;;;;11.10;3.00;;;15.10;99.90;;;;;;5050373;28;20429;-78
2022/05/31 07:18:39;;;;;;;9.43;2.77;;;15.20;99.90;;;;;;5068792;28;20862;-79
2022/05/31 07:21:04;;;;;;;7.67;2.20;;;15.20;99.90;;;;;;5033904;28;20184;-79
2022/05/31 07:23:30;;;;;;;7.27;3.40;;;15.30;99.90;;;;;;5034242;28;20207;-79
2022/05/31 07:25:57;;;;;;;3.17;2.83;;;15.40;99.90;;;;;;5051230;28;20175;-79
2022/05/31 07:28:23;;;;;;;5.93;3.20;;;15.50;99.90;;;;;;5068804;28;20238;-79
2022/05/31 07:30:49;;;;;;;5.50;2.40;;;15.60;99.90;;;;;;5017941;28;20433;-79
2022/05/31 07:33:14;;;;;;;7.77;2.50;;;15.70;99.90;;;;;;5068896;28;20199;-79
2022/05/31 07:35:41;;;;;;;2.37;1.70;;;15.80;99.90;;;;;;5068670;28;20215;-79
2022/05/31 07:38:07;;;;;;;5.50;2.20;;;15.80;99.90;;;;;;5051081;28;20188;-79
2022/05/31 07:40:34;;;;;;;2.57;2.30;;;15.80;99.90;;;;;;5050821;28;20978;-78
2022/05/31 07:43:00;;;;;;;6.63;2.27;;;16.00;99.90;;;;;;5050351;28;20215;-81
2022/05/31 07:45:26;;;;;;;11.83;2.20;;;16.20;99.90;;;;;;5050770;28;20863;-79
2022/05/31 07:47:51;;;;;;;5.43;2.00;;;16.30;99.90;;;;;;5050190;28;20462;-78
2022/05/31 07:50:17;;;;;;;3.70;2.23;;;16.40;99.90;;;;;;5033304;28;20403;-79
2022/05/31 07:52:43;;;;;;;11.50;2.60;;;16.60;99.90;;;;;;5049890;28;20209;-81
2022/05/31 07:55:09;;;;;;;2.50;2.10;;;16.70;99.90;;;;;;5049820;28;20181;-79
2022/05/31 08:00:19;;;;;;;4.83;2.03;;;17.00;99.90;;;;;;5067825;28;20437;-79
2022/05/31 08:02:45;;;;;;;9.43;2.30;;;17.10;99.90;;;;;;5049057;28;20486;-79
2022/05/31 08:05:11;;;;;;;6.10;2.40;;;17.20;99.90;;;;;;5067335;28;20183;-80
2022/05/31 08:07:37;;;;;;;6.37;2.23;;;17.30;99.90;;;;;;5067178;28;20257;-80
2022/05/31 08:10:03;;;;;;;2.40;2.20;;;17.30;99.90;;;;;;5049360;28;20215;-80
2022/05/31 08:12:28;;;;;;;1.90;1.70;;;17.20;99.90;;;;;;5017418;28;20216;-80
2022/05/31 08:14:54;;;;;;;2.27;2.07;;;17.20;99.90;;;;;;5050488;28;20453;-79
2022/05/31 08:17:19;;;;;;;8.10;2.03;;;17.30;99.90;;;;;;5050220;28;20294;-79
2022/05/31 08:19:45;;;;;;;2.90;2.60;;;17.50;99.90;;;;;;5049778;28;20212;-80
2022/05/31 08:22:11;;;;;;;3.93;2.03;;;17.60;99.70;;;;;;5049722;28;20664;-79
2022/05/31 08:24:37;;;;;;;2.70;1.97;;;17.70;99.00;;;;;;5066563;28;20762;-79
2022/05/31 08:27:03;;;;;;;2.70;2.00;;;17.90;99.90;;;;;;5067601;28;20556;-78
2022/05/31 08:29:30;;;;;;;2.83;2.30;;;17.90;99.10;;;;;;5067477;28;20182;-79
2022/05/31 08:31:58;;;;;;;4.10;2.10;;;17.90;97.80;;;;;;5033631;28;20430;-78
2022/05/31 08:34:29;;;;;;;2.23;2.07;;;18.00;99.70;;;;;;5067436;28;20446;-79
2022/05/31 08:36:54;;;;;;;2.70;2.27;;;18.20;99.90;;;;;;5067632;28;20409;-78
2022/05/31 08:39:21;;;;;;;2.27;1.90;;;18.30;99.20;;;;;;5067954;28;20423;-78
2022/05/31 08:41:50;;;;;;;4.13;2.60;;;18.50;98.30;;;;;;5049276;28;20469;-78
2022/05/31 08:44:42;;;;;;;2.63;2.10;;;18.70;98.20;;;;;;5032375;28;20473;-78
2022/05/31 08:47:38;;;;;;;5.97;2.53;;;18.90;98.60;;;;;;5067630;28;20455;-78
2022/05/31 08:53:31;;;;;;;11.23;2.67;;;19.40;98.10;;;;;;5071126;28;20482;-79
2022/05/31 08:59:19;;;;;;;2.70;2.40;;;19.50;96.90;;;;;;5069134;28;20891;-79
2022/05/31 09:01:54;;;;;;;3.70;2.60;;;19.80;96.40;;;;;;5049696;28;20432;-78
2022/05/31 09:04:26;;;;;;;2.60;2.17;;;19.90;97.10;;;;;;5067808;28;20530;-79
2022/05/31 09:06:58;;;;;;;10.83;2.03;;;19.90;98.20;;;;;;5067903;28;20454;-80
2022/05/31 09:09:34;;;;;;;3.50;2.33;;;19.80;98.90;;;;;;5050065;28;20432;-78
2022/05/31 09:12:55;;;;;;;4.63;2.20;;;20.00;98.90;;;;;;5036494;28;20415;-80
2022/05/31 09:15:25;;;;;;;3.20;1.90;;;20.60;97.90;;;;;;4985363;28;20453;-79
2022/05/31 09:18:04;;;;;;;6.87;2.00;;;21.10;97.80;;;;;;5067856;28;20393;-78
2022/05/31 09:20:38;;;;;;;2.07;1.70;;;21.50;96.50;;;;;;5067847;28;20851;-78
2022/05/31 09:23:04;;;;;;;6.70;1.87;;;22.00;94.90;;;;;;5049597;28;20879;-79
2022/05/31 09:25:39;;;;;;;2.60;1.50;;;22.40;94.60;;;;;;5049193;28;20854;-79
2022/05/31 09:28:22;;;;;;;2.50;1.83;;;22.80;94.20;;;;;;5067059;28;20555;-79
2022/05/31 09:30:48;;;;;;;4.20;1.80;;;22.90;92.60;;;;;;5048887;28;20500;-78
2022/05/31 09:33:46;;;;;;;5.67;1.87;;;23.10;91.10;;;;;;5048798;28;20971;-78
2022/05/31 09:36:17;;;;;;;4.67;1.50;;;23.20;90.60;;;;;;5066779;28;20421;-78
2022/05/31 09:39:02;;;;;;;5.03;1.70;;;23.40;88.50;;;;;;5052091;28;20515;-79
2022/05/31 09:41:51;;;;;;;4.57;1.80;;;23.70;87.10;;;;;;5051981;28;20949;-79
2022/05/31 09:44:36;;;;;;;2.67;1.30;;;23.70;79.80;;;;;;5069901;28;20970;-78
2022/05/31 09:47:10;;;;;;;5.57;2.27;;;23.80;79.80;;;;;;5051852;28;20461;-78
2022/05/31 09:49:43;;;;;;;2.47;1.70;;;23.60;80.30;;;;;;5069998;28;20486;-78
2022/05/31 09:52:21;;;;;;;3.00;1.50;;;23.30;78.90;;;;;;5052136;28;20922;-80
2022/05/31 09:57:58;;;;;;;6.00;2.07;;;23.40;78.00;;;;;;5069864;28;20400;-78
2022/05/31 10:00:24;;;;;;;2.90;1.70;;;23.20;76.30;;;;;;5069918;28;20416;-80
2022/05/31 10:03:01;;;;;;;6.30;1.67;;;23.00;78.90;;;;;;5051455;28;20442;-80
2022/05/31 10:05:27;;;;;;;2.50;2.00;;;22.70;77.00;;;;;;5051288;28;20180;-78
2022/05/31 10:07:54;;;;;;;4.50;1.50;;;22.60;79.40;;;;;;5069409;28;20464;-79
2022/05/31 10:10:36;;;;;;;2.50;1.67;;;22.40;79.60;;;;;;5069540;28;20705;-78
2022/05/31 10:13:08;;;;;;;4.00;1.50;;;22.30;80.70;;;;;;5034574;28;20441;-78
2022/05/31 10:15:40;;;;;;;4.10;1.53;;;22.20;78.60;;;;;;5051213;28;20482;-79
2022/05/31 10:18:08;;;;;;;2.40;1.37;;;22.10;79.40;;;;;;5051257;28;20435;-79
2022/05/31 10:20:34;;;;;;;5.83;1.40;;;22.30;77.80;;;;;;5069579;28;20785;-79
2022/05/31 10:23:06;;;;;;;4.80;1.50;;;22.90;80.50;;;;;;5051278;28;20958;-78
2022/05/31 10:25:40;;;;;;;3.07;1.50;;;23.60;79.40;;;;;;5051064;28;20433;-79
2022/05/31 10:28:12;;;;;;;3.93;1.50;;;23.90;73.90;;;;;;5068986;28;20467;-79
2022/05/31 10:30:39;;;;;;;6.80;1.80;;;24.30;71.80;;;;;;5069220;28;20784;-79
2022/05/31 10:33:16;;;;;;;4.30;1.60;;;24.60;71.30;;;;;;5068867;28;20930;-80
2022/05/31 10:35:43;;;;;;;4.70;1.23;;;24.90;71.30;;;;;;5068965;28;20406;-79
2022/05/31 10:38:17;;;;;;;2.30;1.50;;;25.30;68.90;;;;;;5069012;28;20925;-78
2022/05/31 10:40:49;;;;;;;3.30;1.00;;;25.70;63.80;;;;;;5050827;28;21260;-75
2022/05/31 10:43:15;;;;;;;3.40;1.63;;;25.70;58.00;;;;;;5068660;28;20467;-74
2022/05/31 10:45:43;;;;;;;2.20;1.10;;;26.00;58.90;;;;;;5068854;28;20575;-77
2022/05/31 10:48:08;;;;;;;1.77;1.47;;;26.20;57.80;;;;;;5049295;28;20221;-77
2022/05/31 10:50:44;;;;;;;1.40;1.10;;;26.50;59.80;;;;;;5068659;28;20449;-76
2022/05/31 10:53:36;;;;;;;1.33;1.17;;;26.50;56.60;;;;;;5068786;28;20191;-76
2022/05/31 10:56:10;;;;;;;3.30;1.50;;;26.60;55.00;;;;;;5068727;28;20832;-76
2022/05/31 10:58:58;;;;;;;3.83;1.40;;;26.50;55.90;;;;;;5050776;28;20413;-79
2022/05/31 11:01:50;;;;;;;3.40;1.50;;;25.90;55.90;;;;;;5069325;28;20419;-80
2022/05/31 11:04:24;;;;;;;1.30;1.13;;;25.20;60.00;;;;;;5069133;28;20437;-80
2022/05/31 11:07:37;;;;;;;6.07;1.30;;;25.00;59.00;;;;;;5068568;28;21115;-80
2022/05/31 11:12:56;;;;;;;3.40;1.43;;;26.20;57.70;;;;;;5068962;28;20447;-79
2022/05/31 11:15:41;;;;;;;5.30;1.50;;;26.50;57.40;;;;;;5068398;28;20866;-80
2022/05/31 11:18:23;;;;;;;5.10;1.90;;;26.20;55.50;;;;;;5068613;28;20513;-80
2022/05/31 11:21:17;;;;;;;1.67;1.30;;;26.30;57.40;;;;;;5052185;28;20421;-80
2022/05/31 11:24:04;;;;;;;3.10;1.20;;;26.70;54.70;;;;;;5052039;28;20446;-82
2022/05/31 11:26:35;;;;;;;7.17;1.47;;;27.00;55.30;;;;;;5070793;28;20404;-79
2022/05/31 11:29:28;;;;;;;1.93;0.93;;;27.20;54.30;;;;;;5070603;28;20409;-80
2022/05/31 11:32:00;;;;;;;4.40;1.30;;;27.40;54.20;;;;;;5053337;28;20507;-81
2022/05/31 11:35:04;;;;;;;2.87;1.70;;;27.50;53.10;;;;;;5052757;28;20444;-80
2022/05/31 11:37:56;;;;;;;3.93;1.13;;;27.70;54.10;;;;;;5002688;28;20417;-80
2022/05/31 11:40:48;;;;;;;1.63;1.10;;;27.80;52.10;;;;;;5053595;28;20410;-82
2022/05/31 11:43:20;;;;;;;2.90;1.10;;;27.60;49.50;;;;;;5052525;28;21321;-79
2022/05/31 11:46:00;;;;;;;5.43;1.57;;;27.60;51.00;;;;;;5069854;28;20394;-79
2022/05/31 11:48:58;;;;;;;3.60;1.37;;;27.70;49.40;;;;;;5052359;28;20459;-80
2022/05/31 11:51:57;;;;;;;3.37;1.10;;;27.60;48.00;;;;;;5053000;28;20401;-79
2022/05/31 11:54:42;;;;;;;1.80;1.17;;;28.00;52.10;;;;;;5015036;28;20941;-80
2022/05/31 11:57:36;;;;;;;1.90;1.30;;;28.10;48.80;;;;;;5052889;28;20421;-80
2022/05/31 12:00:07;;;;;;;7.80;1.30;;;28.40;51.00;;;;;;5069593;28;20398;-79
2022/05/31 12:03:02;;;;;;;6.93;1.33;;;28.20;51.50;;;;;;5069363;28;20449;-80
2022/05/31 12:05:33;;;;;;;2.40;1.07;;;28.20;46.70;;;;;;5051530;28;21017;-79
2022/05/31 12:08:15;;;;;;;2.17;1.10;;;27.90;48.80;;;;;;5053793;28;20481;-83
2022/05/31 12:10:53;;;;;;;1.30;1.20;;;27.30;50.10;;;;;;5070757;28;20464;-80
2022/05/31 12:13:20;;;;;;;1.30;1.00;;;26.90;48.20;;;;;;5051534;28;20791;-80
2022/05/31 12:15:48;;;;;;;3.20;1.60;;;26.90;48.10;;;;;;5069534;28;20449;-80
2022/05/31 12:18:45;;;;;;;3.13;1.20;;;27.00;49.60;;;;;;5069851;28;20834;-80
2022/05/31 12:21:18;;;;;;;7.37;1.67;;;26.70;47.80;;;;;;5051132;28;20413;-80
2022/05/31 12:23:48;;;;;;;5.87;1.87;;;26.20;47.20;;;;;;5069252;28;20433;-80
2022/05/31 12:26:48;;;;;;;1.50;1.37;;;26.00;49.10;;;;;;5051177;28;20414;-80
2022/05/31 12:29:31;;;;;;;2.17;1.20;;;25.90;50.00;;;;;;5069335;28;20977;-79
2022/05/31 12:32:35;;;;;;;5.20;1.37;;;25.90;49.80;;;;;;5069027;28;20413;-81
2022/05/31 12:35:03;;;;;;;2.83;1.47;;;25.90;48.80;;;;;;4951110;28;20436;-80
2022/05/31 12:37:49;;;;;;;2.67;2.13;;;26.10;49.10;;;;;;5033561;28;20512;-81
2022/05/31 12:40:26;;;;;;;4.63;1.47;;;26.10;48.40;;;;;;5034451;28;20427;-81
2022/05/31 12:42:52;;;;;;;3.03;1.40;;;26.10;50.40;;;;;;5068881;28;20444;-80
2022/05/31 12:45:19;;;;;;;4.60;1.50;;;26.00;52.00;;;;;;5050989;28;20502;-81
2022/05/31 12:47:52;;;;;;;3.50;1.27;;;25.60;54.20;;;;;;5034046;28;20688;-80
2022/05/31 12:50:56;;;;;;;2.90;1.40;;;25.10;55.30;;;;;;5069098;28;20823;-81
2022/05/31 12:53:37;;;;;;;8.77;1.77;;;24.70;57.20;;;;;;5068660;28;20441;-80
2022/05/31 12:56:04;;;;;;;3.03;1.27;;;24.50;58.80;;;;;;5068416;28;20870;-81
2022/05/31 12:58:45;;;;;;;5.30;1.80;;;24.40;58.70;;;;;;5050690;28;20421;-81
2022/05/31 13:01:33;;;;;;;3.30;1.60;;;24.60;58.40;;;;;;5050832;28;20428;-81
2022/05/31 13:04:25;;;;;;;8.33;1.30;;;24.60;57.20;;;;;;5051192;28;20817;-80
2022/05/31 13:07:07;;;;;;;4.43;1.37;;;24.50;57.80;;;;;;5069095;28;20497;-81
2022/05/31 13:09:36;;;;;;;1.63;1.37;;;24.40;59.80;;;;;;5050786;28;20438;-81
2022/05/31 13:20:56;;;;;;;3.00;1.77;;;23.80;63.60;;;;;;5073487;28;20415;-80
2022/05/31 13:23:26;;;;;;;3.57;1.30;;;23.40;63.70;;;;;;5072668;28;21035;-82
2022/05/31 13:26:01;;;;;;;1.70;1.60;;;23.10;65.10;;;;;;5071898;28;20918;-79
2022/05/31 13:28:34;;;;;;;2.23;1.50;;;22.90;67.30;;;;;;5053372;28;20557;-80
2022/05/31 13:31:10;;;;;;;1.67;1.20;;;22.70;64.90;;;;;;5053580;28;20422;-80
2022/05/31 13:33:37;;;;;;;7.50;2.40;;;22.60;64.80;;;;;;5053693;28;20525;-79
2022/05/31 13:36:23;;;;;;;2.60;1.50;;;22.40;67.50;;;;;;5053347;28;20952;-79
2022/05/31 13:38:54;;;;;;;6.77;1.70;;;22.20;69.00;;;;;;5053594;28;20498;-79
2022/05/31 13:41:21;;;;;;;2.50;1.10;;;22.10;66.20;;;;;;5071811;28;20402;-79
2022/05/31 13:43:54;;;;;;;4.67;1.70;;;22.00;68.00;;;;;;5071516;28;20548;-80